sensor_id;sensor_type;location;lat;lon;timestamp;P1;durP1;ratioP1;P2;durP2;ratioP2
15748;SDS011;7976;52.526;13.326;2023-04-03T00:00:38;9.88;;;1.83;;
15748;SDS011;7976;52.526;13.326;2023-04-03T00:03:07;9.10;;;2.25;;
15748;SDS011;7976;52.526;13.326;2023-04-03T00:05:34;7.35;;;1.60;;
15748;SDS011;7976;52.526;13.326;2023-04-03T00:08:01;4.15;;;0.93;;
15748;SDS011;7976;52.526;13.326;2023-04-03T00:10:29;10.60;;;1.67;;
15748;SDS011;7976;52.526;13.326;2023-04-03T00:12:56;10.32;;;1.40;;
15748;SDS011;7976;52.526;13.326;2023-04-03T00:15:23;6.55;;;1.38;;
15748;SDS011;7976;52.526;13.326;2023-04-03T00:17:50;7.90;;;1.70;;
15748;SDS011;7976;52.526;13.326;2023-04-03T00:20:18;5.47;;;1.48;;
15748;SDS011;7976;52.526;13.326;2023-04-03T00:22:45;9.98;;;1.83;;
15748;SDS011;7976;52.526;13.326;2023-04-03T00:25:12;9.30;;;1.60;;
15748;SDS011;7976;52.526;13.326;2023-04-03T00:27:39;7.95;;;1.52;;
15748;SDS011;7976;52.526;13.326;2023-04-03T00:30:07;11.07;;;1.77;;
15748;SDS011;7976;52.526;13.326;2023-04-03T00:32:39;9.65;;;2.15;;
15748;SDS011;7976;52.526;13.326;2023-04-03T00:35:06;7.28;;;1.52;;
15748;SDS011;7976;52.526;13.326;2023-04-03T00:37:36;11.43;;;1.70;;
15748;SDS011;7976;52.526;13.326;2023-04-03T00:40:03;8.57;;;1.55;;
15748;SDS011;7976;52.526;13.326;2023-04-03T00:42:32;8.68;;;1.60;;
15748;SDS011;7976;52.526;13.326;2023-04-03T00:48:01;9.32;;;1.50;;
15748;SDS011;7976;52.526;13.326;2023-04-03T00:50:33;8.30;;;1.65;;
15748;SDS011;7976;52.526;13.326;2023-04-03T00:53:06;7.72;;;1.55;;
15748;SDS011;7976;52.526;13.326;2023-04-03T00:55:40;7.35;;;1.52;;
15748;SDS011;7976;52.526;13.326;2023-04-03T00:58:09;6.57;;;1.52;;
15748;SDS011;7976;52.526;13.326;2023-04-03T01:00:38;5.87;;;1.40;;
15748;SDS011;7976;52.526;13.326;2023-04-03T01:03:12;9.43;;;1.33;;
15748;SDS011;7976;52.526;13.326;2023-04-03T01:05:39;7.50;;;1.40;;
15748;SDS011;7976;52.526;13.326;2023-04-03T01:08:08;6.75;;;1.30;;
15748;SDS011;7976;52.526;13.326;2023-04-03T01:10:35;4.88;;;1.30;;
15748;SDS011;7976;52.526;13.326;2023-04-03T01:13:02;5.45;;;1.38;;
15748;SDS011;7976;52.526;13.326;2023-04-03T01:15:49;6.65;;;1.27;;
15748;SDS011;7976;52.526;13.326;2023-04-03T01:18:16;9.60;;;1.90;;
15748;SDS011;7976;52.526;13.326;2023-04-03T01:21:02;6.75;;;1.40;;
15748;SDS011;7976;52.526;13.326;2023-04-03T01:24:14;6.45;;;1.42;;
15748;SDS011;7976;52.526;13.326;2023-04-03T01:26:56;10.23;;;2.00;;
15748;SDS011;7976;52.526;13.326;2023-04-03T01:29:24;5.87;;;1.30;;
15748;SDS011;7976;52.526;13.326;2023-04-03T01:31:52;7.20;;;1.73;;
15748;SDS011;7976;52.526;13.326;2023-04-03T01:34:21;7.63;;;1.50;;
15748;SDS011;7976;52.526;13.326;2023-04-03T01:36:50;5.57;;;1.40;;
15748;SDS011;7976;52.526;13.326;2023-04-03T01:39:18;7.05;;;1.70;;
15748;SDS011;7976;52.526;13.326;2023-04-03T01:41:46;7.22;;;1.10;;
15748;SDS011;7976;52.526;13.326;2023-04-03T01:44:20;5.97;;;1.23;;
15748;SDS011;7976;52.526;13.326;2023-04-03T01:46:47;7.00;;;1.20;;
15748;SDS011;7976;52.526;13.326;2023-04-03T01:49:15;6.32;;;1.48;;
15748;SDS011;7976;52.526;13.326;2023-04-03T01:51:42;10.88;;;1.75;;
15748;SDS011;7976;52.526;13.326;2023-04-03T01:54:09;12.68;;;2.10;;
15748;SDS011;7976;52.526;13.326;2023-04-03T01:56:36;9.50;;;1.90;;
15748;SDS011;7976;52.526;13.326;2023-04-03T01:59:04;5.00;;;1.40;;
15748;SDS011;7976;52.526;13.326;2023-04-03T02:01:31;7.77;;;2.20;;
15748;SDS011;7976;52.526;13.326;2023-04-03T02:03:57;9.40;;;1.63;;
15748;SDS011;7976;52.526;13.326;2023-04-03T02:06:26;9.95;;;2.25;;
15748;SDS011;7976;52.526;13.326;2023-04-03T02:08:53;8.13;;;2.00;;
15748;SDS011;7976;52.526;13.326;2023-04-03T02:11:20;9.10;;;2.13;;
15748;SDS011;7976;52.526;13.326;2023-04-03T02:13:47;7.13;;;2.10;;
15748;SDS011;7976;52.526;13.326;2023-04-03T02:16:13;8.00;;;2.00;;
15748;SDS011;7976;52.526;13.326;2023-04-03T02:18:40;8.03;;;1.80;;
15748;SDS011;7976;52.526;13.326;2023-04-03T02:21:07;10.00;;;2.00;;
15748;SDS011;7976;52.526;13.326;2023-04-03T02:23:35;9.65;;;1.90;;
15748;SDS011;7976;52.526;13.326;2023-04-03T02:26:03;8.32;;;2.13;;
15748;SDS011;7976;52.526;13.326;2023-04-03T02:28:32;9.82;;;1.80;;
15748;SDS011;7976;52.526;13.326;2023-04-03T02:31:00;9.13;;;1.93;;
15748;SDS011;7976;52.526;13.326;2023-04-03T02:33:29;10.57;;;2.20;;
15748;SDS011;7976;52.526;13.326;2023-04-03T02:35:56;9.83;;;1.80;;
15748;SDS011;7976;52.526;13.326;2023-04-03T02:38:23;5.77;;;1.73;;
15748;SDS011;7976;52.526;13.326;2023-04-03T02:40:53;10.65;;;2.08;;
15748;SDS011;7976;52.526;13.326;2023-04-03T02:43:25;7.75;;;1.38;;
15748;SDS011;7976;52.526;13.326;2023-04-03T02:45:52;9.50;;;1.58;;
15748;SDS011;7976;52.526;13.326;2023-04-03T02:48:19;8.37;;;1.47;;
15748;SDS011;7976;52.526;13.326;2023-04-03T02:50:48;11.47;;;1.77;;
15748;SDS011;7976;52.526;13.326;2023-04-03T02:53:15;6.63;;;1.50;;
15748;SDS011;7976;52.526;13.326;2023-04-03T02:55:43;7.40;;;1.73;;
15748;SDS011;7976;52.526;13.326;2023-04-03T02:58:12;7.00;;;1.90;;
15748;SDS011;7976;52.526;13.326;2023-04-03T03:00:39;8.73;;;1.87;;
15748;SDS011;7976;52.526;13.326;2023-04-03T03:03:06;6.00;;;1.50;;
15748;SDS011;7976;52.526;13.326;2023-04-03T03:05:33;9.77;;;1.60;;
15748;SDS011;7976;52.526;13.326;2023-04-03T03:08:01;7.45;;;1.40;;
15748;SDS011;7976;52.526;13.326;2023-04-03T03:10:28;5.18;;;1.20;;
15748;SDS011;7976;52.526;13.326;2023-04-03T03:12:55;7.50;;;1.80;;
15748;SDS011;7976;52.526;13.326;2023-04-03T03:15:24;6.00;;;1.30;;
15748;SDS011;7976;52.526;13.326;2023-04-03T03:17:51;7.93;;;1.70;;
15748;SDS011;7976;52.526;13.326;2023-04-03T03:20:19;6.40;;;1.40;;
15748;SDS011;7976;52.526;13.326;2023-04-03T03:22:46;5.43;;;1.50;;
15748;SDS011;7976;52.526;13.326;2023-04-03T03:25:13;6.60;;;1.35;;
15748;SDS011;7976;52.526;13.326;2023-04-03T03:27:40;8.73;;;1.50;;
15748;SDS011;7976;52.526;13.326;2023-04-03T03:30:07;12.57;;;1.67;;
15748;SDS011;7976;52.526;13.326;2023-04-03T03:32:36;9.67;;;1.43;;
15748;SDS011;7976;52.526;13.326;2023-04-03T03:35:03;8.20;;;1.43;;
15748;SDS011;7976;52.526;13.326;2023-04-03T03:37:31;4.75;;;1.35;;
15748;SDS011;7976;52.526;13.326;2023-04-03T03:39:58;8.53;;;2.00;;
15748;SDS011;7976;52.526;13.326;2023-04-03T03:42:25;7.03;;;2.00;;
15748;SDS011;7976;52.526;13.326;2023-04-03T03:44:52;7.10;;;1.83;;
15748;SDS011;7976;52.526;13.326;2023-04-03T03:47:19;7.07;;;1.40;;
15748;SDS011;7976;52.526;13.326;2023-04-03T03:49:47;6.50;;;1.27;;
15748;SDS011;7976;52.526;13.326;2023-04-03T03:52:15;7.97;;;1.47;;
15748;SDS011;7976;52.526;13.326;2023-04-03T03:54:42;7.20;;;1.50;;
15748;SDS011;7976;52.526;13.326;2023-04-03T03:57:09;8.02;;;1.52;;
15748;SDS011;7976;52.526;13.326;2023-04-03T03:59:36;5.28;;;1.58;;
15748;SDS011;7976;52.526;13.326;2023-04-03T04:02:05;8.67;;;1.43;;
15748;SDS011;7976;52.526;13.326;2023-04-03T04:04:32;9.13;;;1.50;;
15748;SDS011;7976;52.526;13.326;2023-04-03T04:07:01;8.40;;;1.60;;
15748;SDS011;7976;52.526;13.326;2023-04-03T04:09:29;9.13;;;1.90;;
15748;SDS011;7976;52.526;13.326;2023-04-03T04:11:56;7.83;;;1.73;;
15748;SDS011;7976;52.526;13.326;2023-04-03T04:14:23;11.27;;;2.00;;
15748;SDS011;7976;52.526;13.326;2023-04-03T04:16:51;8.53;;;1.50;;
15748;SDS011;7976;52.526;13.326;2023-04-03T04:19:22;6.13;;;1.43;;
15748;SDS011;7976;52.526;13.326;2023-04-03T04:21:49;4.70;;;1.20;;
15748;SDS011;7976;52.526;13.326;2023-04-03T04:24:18;4.93;;;1.30;;
15748;SDS011;7976;52.526;13.326;2023-04-03T04:26:46;9.43;;;1.50;;
15748;SDS011;7976;52.526;13.326;2023-04-03T04:29:15;7.57;;;1.60;;
15748;SDS011;7976;52.526;13.326;2023-04-03T04:31:45;10.20;;;2.03;;
15748;SDS011;7976;52.526;13.326;2023-04-03T04:34:13;11.07;;;2.00;;
15748;SDS011;7976;52.526;13.326;2023-04-03T04:36:40;9.60;;;2.43;;
15748;SDS011;7976;52.526;13.326;2023-04-03T04:39:07;12.90;;;1.70;;
15748;SDS011;7976;52.526;13.326;2023-04-03T04:41:35;7.00;;;1.40;;
15748;SDS011;7976;52.526;13.326;2023-04-03T04:44:04;6.83;;;1.30;;
15748;SDS011;7976;52.526;13.326;2023-04-03T04:46:31;5.60;;;1.53;;
15748;SDS011;7976;52.526;13.326;2023-04-03T04:48:58;6.73;;;1.43;;
15748;SDS011;7976;52.526;13.326;2023-04-03T04:51:28;9.97;;;1.43;;
15748;SDS011;7976;52.526;13.326;2023-04-03T04:53:55;12.93;;;2.03;;
15748;SDS011;7976;52.526;13.326;2023-04-03T04:56:23;6.73;;;1.50;;
15748;SDS011;7976;52.526;13.326;2023-04-03T04:58:53;7.63;;;1.87;;
15748;SDS011;7976;52.526;13.326;2023-04-03T05:01:21;5.63;;;1.50;;
15748;SDS011;7976;52.526;13.326;2023-04-03T05:03:58;10.43;;;1.47;;
15748;SDS011;7976;52.526;13.326;2023-04-03T05:06:25;5.53;;;1.37;;
15748;SDS011;7976;52.526;13.326;2023-04-03T05:08:54;10.80;;;1.73;;
15748;SDS011;7976;52.526;13.326;2023-04-03T05:11:21;6.30;;;1.50;;
15748;SDS011;7976;52.526;13.326;2023-04-03T05:13:50;3.60;;;1.47;;
15748;SDS011;7976;52.526;13.326;2023-04-03T05:16:18;7.47;;;1.93;;
15748;SDS011;7976;52.526;13.326;2023-04-03T05:18:45;5.97;;;1.13;;
15748;SDS011;7976;52.526;13.326;2023-04-03T05:21:17;10.30;;;1.77;;
15748;SDS011;7976;52.526;13.326;2023-04-03T05:23:46;6.80;;;1.53;;
15748;SDS011;7976;52.526;13.326;2023-04-03T05:26:13;7.53;;;1.50;;
15748;SDS011;7976;52.526;13.326;2023-04-03T05:28:41;7.03;;;1.37;;
15748;SDS011;7976;52.526;13.326;2023-04-03T05:31:09;7.50;;;1.20;;
15748;SDS011;7976;52.526;13.326;2023-04-03T05:33:38;5.73;;;1.60;;
15748;SDS011;7976;52.526;13.326;2023-04-03T05:36:08;9.83;;;1.80;;
15748;SDS011;7976;52.526;13.326;2023-04-03T05:38:41;5.03;;;1.40;;
15748;SDS011;7976;52.526;13.326;2023-04-03T05:41:08;8.93;;;1.60;;
15748;SDS011;7976;52.526;13.326;2023-04-03T05:43:35;8.80;;;1.67;;
15748;SDS011;7976;52.526;13.326;2023-04-03T05:46:04;5.47;;;1.40;;
15748;SDS011;7976;52.526;13.326;2023-04-03T05:48:36;7.80;;;1.58;;
15748;SDS011;7976;52.526;13.326;2023-04-03T05:51:05;4.60;;;1.20;;
15748;SDS011;7976;52.526;13.326;2023-04-03T05:53:35;9.50;;;1.55;;
15748;SDS011;7976;52.526;13.326;2023-04-03T05:56:04;6.43;;;1.63;;
15748;SDS011;7976;52.526;13.326;2023-04-03T05:58:36;9.27;;;1.40;;
15748;SDS011;7976;52.526;13.326;2023-04-03T06:01:03;8.70;;;2.30;;
15748;SDS011;7976;52.526;13.326;2023-04-03T06:03:31;5.83;;;1.17;;
15748;SDS011;7976;52.526;13.326;2023-04-03T06:06:00;11.10;;;2.00;;
15748;SDS011;7976;52.526;13.326;2023-04-03T06:08:30;7.80;;;2.03;;
15748;SDS011;7976;52.526;13.326;2023-04-03T06:10:57;10.00;;;1.83;;
15748;SDS011;7976;52.526;13.326;2023-04-03T06:13:26;10.40;;;2.08;;
15748;SDS011;7976;52.526;13.326;2023-04-03T06:15:53;11.73;;;2.60;;
15748;SDS011;7976;52.526;13.326;2023-04-03T06:18:21;11.73;;;2.15;;
15748;SDS011;7976;52.526;13.326;2023-04-03T06:20:48;12.00;;;2.10;;
15748;SDS011;7976;52.526;13.326;2023-04-03T06:23:17;9.73;;;2.30;;
15748;SDS011;7976;52.526;13.326;2023-04-03T06:25:43;11.80;;;2.05;;
15748;SDS011;7976;52.526;13.326;2023-04-03T06:28:11;9.93;;;1.98;;
15748;SDS011;7976;52.526;13.326;2023-04-03T06:30:38;14.90;;;2.72;;
15748;SDS011;7976;52.526;13.326;2023-04-03T06:33:05;6.65;;;1.95;;
15748;SDS011;7976;52.526;13.326;2023-04-03T06:35:32;12.50;;;2.33;;
15748;SDS011;7976;52.526;13.326;2023-04-03T06:38:00;9.73;;;2.03;;
15748;SDS011;7976;52.526;13.326;2023-04-03T06:40:30;16.13;;;2.90;;
15748;SDS011;7976;52.526;13.326;2023-04-03T06:42:57;12.68;;;2.72;;
15748;SDS011;7976;52.526;13.326;2023-04-03T06:45:24;8.98;;;2.20;;
15748;SDS011;7976;52.526;13.326;2023-04-03T06:47:51;11.07;;;2.03;;
15748;SDS011;7976;52.526;13.326;2023-04-03T06:50:18;10.57;;;2.30;;
15748;SDS011;7976;52.526;13.326;2023-04-03T06:52:45;9.55;;;1.75;;
15748;SDS011;7976;52.526;13.326;2023-04-03T06:55:12;10.00;;;1.77;;
15748;SDS011;7976;52.526;13.326;2023-04-03T06:57:40;13.38;;;2.08;;
15748;SDS011;7976;52.526;13.326;2023-04-03T07:00:07;7.72;;;1.83;;
15748;SDS011;7976;52.526;13.326;2023-04-03T07:02:35;12.63;;;3.15;;
15748;SDS011;7976;52.526;13.326;2023-04-03T07:05:02;9.38;;;1.80;;
15748;SDS011;7976;52.526;13.326;2023-04-03T07:07:30;7.85;;;1.80;;
15748;SDS011;7976;52.526;13.326;2023-04-03T07:09:58;10.65;;;2.40;;
15748;SDS011;7976;52.526;13.326;2023-04-03T07:12:25;10.75;;;2.20;;
15748;SDS011;7976;52.526;13.326;2023-04-03T07:14:54;9.50;;;2.28;;
15748;SDS011;7976;52.526;13.326;2023-04-03T07:17:21;9.85;;;1.77;;
15748;SDS011;7976;52.526;13.326;2023-04-03T07:19:47;8.70;;;2.35;;
15748;SDS011;7976;52.526;13.326;2023-04-03T07:22:15;6.65;;;1.35;;
15748;SDS011;7976;52.526;13.326;2023-04-03T07:24:42;7.97;;;1.33;;
15748;SDS011;7976;52.526;13.326;2023-04-03T07:27:09;5.60;;;1.35;;
15748;SDS011;7976;52.526;13.326;2023-04-03T07:29:37;6.25;;;1.30;;
15748;SDS011;7976;52.526;13.326;2023-04-03T07:32:06;5.38;;;1.50;;
15748;SDS011;7976;52.526;13.326;2023-04-03T07:34:33;5.43;;;1.15;;
15748;SDS011;7976;52.526;13.326;2023-04-03T07:37:00;8.55;;;1.25;;
15748;SDS011;7976;52.526;13.326;2023-04-03T07:39:27;5.75;;;1.30;;
15748;SDS011;7976;52.526;13.326;2023-04-03T07:41:54;4.35;;;1.38;;
15748;SDS011;7976;52.526;13.326;2023-04-03T07:44:21;4.88;;;1.10;;
15748;SDS011;7976;52.526;13.326;2023-04-03T07:46:48;6.05;;;0.95;;
15748;SDS011;7976;52.526;13.326;2023-04-03T07:49:17;7.75;;;1.27;;
15748;SDS011;7976;52.526;13.326;2023-04-03T07:51:44;8.07;;;1.08;;
15748;SDS011;7976;52.526;13.326;2023-04-03T07:54:11;5.88;;;1.17;;
15748;SDS011;7976;52.526;13.326;2023-04-03T07:56:38;6.45;;;1.23;;
15748;SDS011;7976;52.526;13.326;2023-04-03T07:59:06;4.70;;;1.20;;
15748;SDS011;7976;52.526;13.326;2023-04-03T08:01:33;10.20;;;1.30;;
15748;SDS011;7976;52.526;13.326;2023-04-03T08:04:00;2.97;;;0.75;;
15748;SDS011;7976;52.526;13.326;2023-04-03T08:06:28;5.53;;;1.20;;
15748;SDS011;7976;52.526;13.326;2023-04-03T08:08:58;5.93;;;1.38;;
15748;SDS011;7976;52.526;13.326;2023-04-03T08:11:24;6.20;;;1.40;;
15748;SDS011;7976;52.526;13.326;2023-04-03T08:13:52;6.90;;;1.98;;
15748;SDS011;7976;52.526;13.326;2023-04-03T08:16:20;5.55;;;1.63;;
15748;SDS011;7976;52.526;13.326;2023-04-03T08:18:51;7.93;;;1.42;;
15748;SDS011;7976;52.526;13.326;2023-04-03T08:21:19;6.30;;;1.13;;
15748;SDS011;7976;52.526;13.326;2023-04-03T08:23:49;6.38;;;1.85;;
15748;SDS011;7976;52.526;13.326;2023-04-03T08:26:20;7.40;;;1.15;;
15748;SDS011;7976;52.526;13.326;2023-04-03T08:28:47;4.95;;;1.02;;
15748;SDS011;7976;52.526;13.326;2023-04-03T08:31:15;6.90;;;1.33;;
15748;SDS011;7976;52.526;13.326;2023-04-03T08:33:44;4.95;;;1.20;;
15748;SDS011;7976;52.526;13.326;2023-04-03T08:36:16;5.82;;;1.38;;
15748;SDS011;7976;52.526;13.326;2023-04-03T08:38:47;8.60;;;1.50;;
15748;SDS011;7976;52.526;13.326;2023-04-03T08:41:16;2.90;;;1.10;;
15748;SDS011;7976;52.526;13.326;2023-04-03T08:43:56;6.60;;;1.40;;
15748;SDS011;7976;52.526;13.326;2023-04-03T08:46:38;4.30;;;1.00;;
15748;SDS011;7976;52.526;13.326;2023-04-03T08:49:18;5.03;;;1.33;;
15748;SDS011;7976;52.526;13.326;2023-04-03T08:51:52;7.50;;;1.30;;
15748;SDS011;7976;52.526;13.326;2023-04-03T08:54:26;10.95;;;2.90;;
15748;SDS011;7976;52.526;13.326;2023-04-03T08:56:57;6.05;;;1.35;;
15748;SDS011;7976;52.526;13.326;2023-04-03T08:59:29;8.13;;;1.48;;
15748;SDS011;7976;52.526;13.326;2023-04-03T09:02:04;6.40;;;1.45;;
15748;SDS011;7976;52.526;13.326;2023-04-03T09:04:51;8.93;;;1.38;;
15748;SDS011;7976;52.526;13.326;2023-04-03T09:07:20;6.65;;;1.33;;
15748;SDS011;7976;52.526;13.326;2023-04-03T09:09:59;7.80;;;1.55;;
15748;SDS011;7976;52.526;13.326;2023-04-03T09:12:32;7.32;;;1.70;;
15748;SDS011;7976;52.526;13.326;2023-04-03T09:15:07;9.18;;;1.90;;
15748;SDS011;7976;52.526;13.326;2023-04-03T09:17:47;10.18;;;2.10;;
15748;SDS011;7976;52.526;13.326;2023-04-03T09:20:28;7.07;;;1.52;;
15748;SDS011;7976;52.526;13.326;2023-04-03T09:23:12;5.20;;;1.40;;
15748;SDS011;7976;52.526;13.326;2023-04-03T09:25:47;7.05;;;1.75;;
15748;SDS011;7976;52.526;13.326;2023-04-03T09:28:21;10.18;;;3.15;;
15748;SDS011;7976;52.526;13.326;2023-04-03T09:30:48;6.13;;;1.63;;
15748;SDS011;7976;52.526;13.326;2023-04-03T09:33:15;6.78;;;1.70;;
15748;SDS011;7976;52.526;13.326;2023-04-03T09:35:43;7.65;;;1.42;;
15748;SDS011;7976;52.526;13.326;2023-04-03T09:38:15;6.50;;;1.63;;
15748;SDS011;7976;52.526;13.326;2023-04-03T09:40:49;6.60;;;1.85;;
15748;SDS011;7976;52.526;13.326;2023-04-03T09:43:31;4.10;;;1.20;;
15748;SDS011;7976;52.526;13.326;2023-04-03T09:48:49;6.78;;;1.60;;
15748;SDS011;7976;52.526;13.326;2023-04-03T09:51:18;4.88;;;1.33;;
15748;SDS011;7976;52.526;13.326;2023-04-03T09:53:45;6.03;;;1.35;;
15748;SDS011;7976;52.526;13.326;2023-04-03T09:56:21;5.13;;;1.63;;
15748;SDS011;7976;52.526;13.326;2023-04-03T09:58:53;6.75;;;1.80;;
15748;SDS011;7976;52.526;13.326;2023-04-03T10:01:41;7.20;;;1.52;;
15748;SDS011;7976;52.526;13.326;2023-04-03T10:04:22;9.65;;;1.85;;
15748;SDS011;7976;52.526;13.326;2023-04-03T10:06:50;8.60;;;2.17;;
15748;SDS011;7976;52.526;13.326;2023-04-03T10:09:20;7.97;;;2.10;;
15748;SDS011;7976;52.526;13.326;2023-04-03T10:12:02;8.35;;;1.80;;
15748;SDS011;7976;52.526;13.326;2023-04-03T10:14:36;6.05;;;1.38;;
15748;SDS011;7976;52.526;13.326;2023-04-03T10:17:10;7.68;;;2.10;;
15748;SDS011;7976;52.526;13.326;2023-04-03T10:19:50;25.38;;;10.38;;
15748;SDS011;7976;52.526;13.326;2023-04-03T10:22:26;19.95;;;7.05;;
15748;SDS011;7976;52.526;13.326;2023-04-03T10:25:09;7.93;;;2.30;;
15748;SDS011;7976;52.526;13.326;2023-04-03T10:27:51;4.97;;;1.20;;
15748;SDS011;7976;52.526;13.326;2023-04-03T10:30:28;7.90;;;2.42;;
15748;SDS011;7976;52.526;13.326;2023-04-03T10:33:14;12.13;;;2.78;;
15748;SDS011;7976;52.526;13.326;2023-04-03T10:36:00;8.70;;;2.50;;
15748;SDS011;7976;52.526;13.326;2023-04-03T10:38:40;10.15;;;2.90;;
15748;SDS011;7976;52.526;13.326;2023-04-03T10:41:21;5.75;;;1.50;;
15748;SDS011;7976;52.526;13.326;2023-04-03T10:44:10;4.75;;;1.58;;
15748;SDS011;7976;52.526;13.326;2023-04-03T10:46:47;6.68;;;1.55;;
15748;SDS011;7976;52.526;13.326;2023-04-03T10:49:22;7.07;;;2.13;;
15748;SDS011;7976;52.526;13.326;2023-04-03T10:52:06;4.65;;;1.77;;
15748;SDS011;7976;52.526;13.326;2023-04-03T10:54:45;5.63;;;1.50;;
15748;SDS011;7976;52.526;13.326;2023-04-03T10:57:25;5.82;;;1.20;;
15748;SDS011;7976;52.526;13.326;2023-04-03T10:59:56;8.88;;;2.33;;
15748;SDS011;7976;52.526;13.326;2023-04-03T11:02:30;7.88;;;2.42;;
15748;SDS011;7976;52.526;13.326;2023-04-03T11:05:03;7.57;;;1.85;;
15748;SDS011;7976;52.526;13.326;2023-04-03T11:07:42;17.48;;;5.03;;
15748;SDS011;7976;52.526;13.326;2023-04-03T11:10:18;10.45;;;3.30;;
15748;SDS011;7976;52.526;13.326;2023-04-03T11:12:56;6.50;;;1.90;;
15748;SDS011;7976;52.526;13.326;2023-04-03T11:15:36;9.77;;;3.75;;
15748;SDS011;7976;52.526;13.326;2023-04-03T11:18:04;10.13;;;2.58;;
15748;SDS011;7976;52.526;13.326;2023-04-03T11:20:41;21.45;;;7.93;;
15748;SDS011;7976;52.526;13.326;2023-04-03T11:23:17;24.23;;;10.10;;
15748;SDS011;7976;52.526;13.326;2023-04-03T11:25:51;14.65;;;5.55;;
15748;SDS011;7976;52.526;13.326;2023-04-03T11:28:32;12.95;;;3.00;;
15748;SDS011;7976;52.526;13.326;2023-04-03T11:31:02;9.20;;;2.67;;
15748;SDS011;7976;52.526;13.326;2023-04-03T11:33:44;6.82;;;1.70;;
15748;SDS011;7976;52.526;13.326;2023-04-03T11:36:26;8.75;;;2.05;;
15748;SDS011;7976;52.526;13.326;2023-04-03T11:38:58;6.90;;;1.50;;
15748;SDS011;7976;52.526;13.326;2023-04-03T11:41:42;6.97;;;1.63;;
15748;SDS011;7976;52.526;13.326;2023-04-03T11:44:25;6.00;;;1.77;;
15748;SDS011;7976;52.526;13.326;2023-04-03T11:47:02;13.82;;;4.93;;
15748;SDS011;7976;52.526;13.326;2023-04-03T11:55:53;8.52;;;2.63;;
15748;SDS011;7976;52.526;13.326;2023-04-03T11:58:27;7.07;;;1.88;;
15748;SDS011;7976;52.526;13.326;2023-04-03T12:00:58;7.57;;;2.58;;
15748;SDS011;7976;52.526;13.326;2023-04-03T12:12:57;10.52;;;3.28;;
15748;SDS011;7976;52.526;13.326;2023-04-03T12:18:32;10.52;;;2.65;;
15748;SDS011;7976;52.526;13.326;2023-04-03T12:21:10;9.25;;;2.08;;
15748;SDS011;7976;52.526;13.326;2023-04-03T12:26:50;10.18;;;2.42;;
15748;SDS011;7976;52.526;13.326;2023-04-03T12:29:33;11.43;;;2.40;;
15748;SDS011;7976;52.526;13.326;2023-04-03T12:32:08;10.63;;;2.60;;
15748;SDS011;7976;52.526;13.326;2023-04-03T12:34:57;9.25;;;2.55;;
15748;SDS011;7976;52.526;13.326;2023-04-03T12:37:42;8.55;;;1.60;;
15748;SDS011;7976;52.526;13.326;2023-04-03T12:40:28;8.70;;;2.20;;
15748;SDS011;7976;52.526;13.326;2023-04-03T12:43:11;15.25;;;3.58;;
15748;SDS011;7976;52.526;13.326;2023-04-03T12:46:02;9.38;;;2.58;;
15748;SDS011;7976;52.526;13.326;2023-04-03T12:48:38;12.80;;;3.15;;
15748;SDS011;7976;52.526;13.326;2023-04-03T12:51:15;12.82;;;3.95;;
15748;SDS011;7976;52.526;13.326;2023-04-03T12:53:49;10.85;;;3.42;;
15748;SDS011;7976;52.526;13.326;2023-04-03T12:56:24;10.70;;;3.17;;
15748;SDS011;7976;52.526;13.326;2023-04-03T12:58:54;18.38;;;4.45;;
15748;SDS011;7976;52.526;13.326;2023-04-03T13:01:39;13.95;;;4.20;;
15748;SDS011;7976;52.526;13.326;2023-04-03T13:04:06;7.45;;;2.08;;
15748;SDS011;7976;52.526;13.326;2023-04-03T13:06:37;11.20;;;3.50;;
15748;SDS011;7976;52.526;13.326;2023-04-03T13:09:17;11.32;;;3.10;;
15748;SDS011;7976;52.526;13.326;2023-04-03T13:11:48;8.77;;;1.67;;
15748;SDS011;7976;52.526;13.326;2023-04-03T13:14:18;10.70;;;2.17;;
15748;SDS011;7976;52.526;13.326;2023-04-03T13:16:53;8.07;;;2.05;;
15748;SDS011;7976;52.526;13.326;2023-04-03T13:19:23;6.70;;;1.50;;
15748;SDS011;7976;52.526;13.326;2023-04-03T13:21:56;10.88;;;1.80;;
15748;SDS011;7976;52.526;13.326;2023-04-03T13:24:30;11.13;;;3.00;;
15748;SDS011;7976;52.526;13.326;2023-04-03T13:27:03;18.27;;;5.05;;
15748;SDS011;7976;52.526;13.326;2023-04-03T13:29:48;12.60;;;2.40;;
15748;SDS011;7976;52.526;13.326;2023-04-03T13:32:18;8.00;;;2.30;;
15748;SDS011;7976;52.526;13.326;2023-04-03T13:34:48;19.70;;;6.13;;
15748;SDS011;7976;52.526;13.326;2023-04-03T13:37:20;33.20;;;13.10;;
15748;SDS011;7976;52.526;13.326;2023-04-03T13:39:58;20.05;;;6.65;;
15748;SDS011;7976;52.526;13.326;2023-04-03T13:42:31;13.80;;;5.15;;
15748;SDS011;7976;52.526;13.326;2023-04-03T13:45:18;15.05;;;4.57;;
15748;SDS011;7976;52.526;13.326;2023-04-03T13:47:50;9.48;;;2.75;;
15748;SDS011;7976;52.526;13.326;2023-04-03T13:50:25;7.47;;;2.25;;
15748;SDS011;7976;52.526;13.326;2023-04-03T13:52:54;8.10;;;1.70;;
15748;SDS011;7976;52.526;13.326;2023-04-03T13:55:37;12.95;;;2.45;;
15748;SDS011;7976;52.526;13.326;2023-04-03T13:58:30;21.33;;;4.38;;
15748;SDS011;7976;52.526;13.326;2023-04-03T14:01:01;14.35;;;3.35;;
15748;SDS011;7976;52.526;13.326;2023-04-03T14:03:40;9.00;;;1.83;;
15748;SDS011;7976;52.526;13.326;2023-04-03T14:06:11;8.75;;;2.05;;
15748;SDS011;7976;52.526;13.326;2023-04-03T14:08:41;13.95;;;3.55;;
15748;SDS011;7976;52.526;13.326;2023-04-03T14:11:16;11.10;;;3.67;;
15748;SDS011;7976;52.526;13.326;2023-04-03T14:13:46;10.05;;;2.35;;
15748;SDS011;7976;52.526;13.326;2023-04-03T14:16:15;8.35;;;2.72;;
15748;SDS011;7976;52.526;13.326;2023-04-03T14:18:48;22.15;;;8.07;;
15748;SDS011;7976;52.526;13.326;2023-04-03T14:21:18;12.30;;;3.17;;
15748;SDS011;7976;52.526;13.326;2023-04-03T14:23:46;7.70;;;2.00;;
15748;SDS011;7976;52.526;13.326;2023-04-03T14:26:15;18.67;;;7.15;;
15748;SDS011;7976;52.526;13.326;2023-04-03T14:28:46;23.80;;;10.25;;
15748;SDS011;7976;52.526;13.326;2023-04-03T14:31:15;25.33;;;10.02;;
15748;SDS011;7976;52.526;13.326;2023-04-03T14:33:44;27.58;;;11.15;;
15748;SDS011;7976;52.526;13.326;2023-04-03T14:36:12;17.45;;;7.63;;
15748;SDS011;7976;52.526;13.326;2023-04-03T14:38:41;18.60;;;8.10;;
15748;SDS011;7976;52.526;13.326;2023-04-03T14:41:17;12.23;;;3.80;;
15748;SDS011;7976;52.526;13.326;2023-04-03T14:43:47;6.03;;;1.83;;
15748;SDS011;7976;52.526;13.326;2023-04-03T14:46:17;6.50;;;1.55;;
15748;SDS011;7976;52.526;13.326;2023-04-03T14:48:50;8.57;;;1.77;;
15748;SDS011;7976;52.526;13.326;2023-04-03T14:51:16;7.05;;;2.20;;
15748;SDS011;7976;52.526;13.326;2023-04-03T14:53:44;10.02;;;2.13;;
15748;SDS011;7976;52.526;13.326;2023-04-03T14:56:12;28.60;;;11.93;;
15748;SDS011;7976;52.526;13.326;2023-04-03T14:58:45;11.13;;;3.30;;
15748;SDS011;7976;52.526;13.326;2023-04-03T15:01:15;9.88;;;2.65;;
15748;SDS011;7976;52.526;13.326;2023-04-03T15:03:43;17.67;;;7.10;;
15748;SDS011;7976;52.526;13.326;2023-04-03T15:06:11;11.57;;;3.38;;
15748;SDS011;7976;52.526;13.326;2023-04-03T15:08:40;14.45;;;3.28;;
15748;SDS011;7976;52.526;13.326;2023-04-03T15:11:09;10.00;;;2.50;;
15748;SDS011;7976;52.526;13.326;2023-04-03T15:13:37;10.52;;;3.10;;
15748;SDS011;7976;52.526;13.326;2023-04-03T15:16:09;10.40;;;3.38;;
15748;SDS011;7976;52.526;13.326;2023-04-03T15:18:42;14.32;;;5.43;;
15748;SDS011;7976;52.526;13.326;2023-04-03T15:21:10;14.43;;;5.13;;
15748;SDS011;7976;52.526;13.326;2023-04-03T15:23:37;10.60;;;2.88;;
15748;SDS011;7976;52.526;13.326;2023-04-03T15:26:04;12.88;;;3.90;;
15748;SDS011;7976;52.526;13.326;2023-04-03T15:28:32;10.57;;;3.78;;
15748;SDS011;7976;52.526;13.326;2023-04-03T15:31:02;9.80;;;2.83;;
15748;SDS011;7976;52.526;13.326;2023-04-03T15:33:32;10.77;;;3.40;;